Ardsley On Hudson, NY (10503)

8:30 PM EDT on August 29, 2015 (GMT -0400)
Tarryhill | | Change Station
CLOSE
Current Station
Personal Weather Station
Location: Tarrytown, NY
Elevation: 323 ft
Nearby Weather Stations

Elev 323 ft 41.05 °N, 73.85 °W | Updated 22 seconds ago

Clear
Clear
73.7 °F
Feels Like 76 °F
N
5.0
Wind Variable Wind from SW
Gusts 5.0 mph

Today
High -- | Low -- °F
--% Chance of Precip.
Yesterday
High -- | Low -- °F
Precip. -- in
6:18 AM 7:33 PM
Full, 100% visible
Pressure 30.09 in
Visibility 10.0 miles
Clouds Clear
Heat Index 76 °F
Dew Point 62 °F
Humidity 67%
Rainfall 0.00 in
Snow Depth Not available.
UV 0 out of 12
Pollen 10.00 out of 12
Air Quality Not available.
Flu Activity Not available.
METAR KHPN 292356Z 18005KT 10SM CLR 23/16 A3011 RMK AO2 SLP190 T02280156 10289 20228 55002
Pressure 30.09 in
Visibility 10.0 miles
Clouds Clear
Heat Index 76 °F
Dew Point 62 °F
Humidity 67%
Rainfall 0.00 in
Snow Depth Not available.
UV 0 out of 12
Pollen 10.00 out of 12
Air Quality Not available.
Flu Activity Not available.
METAR KHPN 292356Z 18005KT 10SM CLR 23/16 A3011 RMK AO2 SLP190 T02280156 10289 20228 55002

10-Day Weather Forecast

×

Almanac

Astronomy

Aug. 29, 2015 Rise Set
Actual Time
Civil Twilight
Nautical Twilight
Astronomical Twilight
Moon
Length of Visible Light
Length of Day
Tomorrow will be .
, % of the Moon is Illuminated

Today's Extremes

State Highs State Lows

Community

WunderPhotos

Upload Photos

1,850,807 photos uploaded!

WunderBlogs® & News

Nearby

Air Quality

  Air Quality AQ Index Pollutant
Not available.

Snow Depth

Station Depth Elevation

Earthquake Activity

City Distance Mag. Time & Date
Minimum magnitude displayed is 2.5.

Coastal Water Temperatures

Place Temperature

Stations

Nearby Weather Stations

Station Location Temp. Windchill Dew Point Humidity Wind Precip. Elev Updated Type